sensor_id;sensor_type;location;lat;lon;timestamp;pressure;altitude;pressure_sealevel;temperature;humidity
78170;BME280;67412;49.892;14.490;2023-08-07T00:00:19;96187.47;;;12.06;100.00
78170;BME280;67412;49.892;14.490;2023-08-07T00:02:45;96192.50;;;12.09;100.00
78170;BME280;67412;49.892;14.490;2023-08-07T00:05:10;96189.22;;;12.06;100.00
78170;BME280;67412;49.892;14.490;2023-08-07T00:07:35;96187.47;;;12.06;100.00
78170;BME280;67412;49.892;14.490;2023-08-07T00:10:01;96190.22;;;12.02;100.00
78170;BME280;67412;49.892;14.490;2023-08-07T00:12:26;96183.38;;;12.01;100.00
78170;BME280;67412;49.892;14.490;2023-08-07T00:14:52;96178.25;;;12.01;100.00
78170;BME280;67412;49.892;14.490;2023-08-07T00:17:18;96189.53;;;11.97;100.00
78170;BME280;67412;49.892;14.490;2023-08-07T00:19:43;96183.69;;;11.93;100.00
78170;BME280;67412;49.892;14.490;2023-08-07T00:22:08;96181.09;;;11.93;100.00
78170;BME280;67412;49.892;14.490;2023-08-07T00:24:33;96174.28;;;11.92;100.00
78170;BME280;67412;49.892;14.490;2023-08-07T00:26:59;96177.88;;;11.88;100.00
78170;BME280;67412;49.892;14.490;2023-08-07T00:29:24;96176.91;;;11.91;100.00
78170;BME280;67412;49.892;14.490;2023-08-07T00:31:50;96176.06;;;11.90;100.00
78170;BME280;67412;49.892;14.490;2023-08-07T00:34:15;96169.03;;;11.95;100.00
78170;BME280;67412;49.892;14.490;2023-08-07T00:36:40;96169.91;;;11.94;100.00
78170;BME280;67412;49.892;14.490;2023-08-07T00:39:06;96172.31;;;11.99;100.00
78170;BME280;67412;49.892;14.490;2023-08-07T00:41:32;96173.97;;;12.00;100.00
78170;BME280;67412;49.892;14.490;2023-08-07T00:43:58;96172.91;;;12.05;100.00
78170;BME280;67412;49.892;14.490;2023-08-07T00:46:23;96177.22;;;12.05;100.00
78170;BME280;67412;49.892;14.490;2023-08-07T00:48:49;96184.06;;;12.06;100.00
78170;BME280;67412;49.892;14.490;2023-08-07T00:51:16;96179.56;;;12.11;100.00
78170;BME280;67412;49.892;14.490;2023-08-07T00:53:42;96174.41;;;12.11;100.00
78170;BME280;67412;49.892;14.490;2023-08-07T00:56:08;96167.53;;;12.11;100.00
78170;BME280;67412;49.892;14.490;2023-08-07T00:58:33;96177.78;;;12.13;100.00
78170;BME280;67412;49.892;14.490;2023-08-07T01:00:59;96176.75;;;12.17;100.00
78170;BME280;67412;49.892;14.490;2023-08-07T01:03:24;96183.69;;;12.15;100.00
78170;BME280;67412;49.892;14.490;2023-08-07T01:05:50;96175.91;;;12.17;100.00
78170;BME280;67412;49.892;14.490;2023-08-07T01:08:15;96189.69;;;12.16;100.00
78170;BME280;67412;49.892;14.490;2023-08-07T01:14:10;96182.81;;;12.16;100.00
78170;BME280;67412;49.892;14.490;2023-08-07T01:16:59;96170.81;;;12.15;100.00
78170;BME280;67412;49.892;14.490;2023-08-07T01:19:27;96179.47;;;12.14;100.00
78170;BME280;67412;49.892;14.490;2023-08-07T01:22:11;96184.53;;;12.16;100.00
78170;BME280;67412;49.892;14.490;2023-08-07T01:24:38;96192.22;;;12.17;100.00
78170;BME280;67412;49.892;14.490;2023-08-07T01:27:22;96195.63;;;12.18;100.00
78170;BME280;67412;49.892;14.490;2023-08-07T01:32:59;96198.03;;;12.22;100.00
78170;BME280;67412;49.892;14.490;2023-08-07T01:35:29;96194.66;;;12.20;100.00
78170;BME280;67412;49.892;14.490;2023-08-07T01:37:56;96204.97;;;12.20;100.00
78170;BME280;67412;49.892;14.490;2023-08-07T01:40:22;96205.81;;;12.21;100.00
78170;BME280;67412;49.892;14.490;2023-08-07T01:42:48;96201.50;;;12.21;100.00
78170;BME280;67412;49.892;14.490;2023-08-07T01:45:14;96209.16;;;12.23;100.00
78170;BME280;67412;49.892;14.490;2023-08-07T01:47:39;96211.78;;;12.21;100.00
78170;BME280;67412;49.892;14.490;2023-08-07T01:50:05;96204.13;;;12.20;100.00
78170;BME280;67412;49.892;14.490;2023-08-07T01:52:30;96197.22;;;12.20;100.00
78170;BME280;67412;49.892;14.490;2023-08-07T01:54:56;96204.97;;;12.20;100.00
78170;BME280;67412;49.892;14.490;2023-08-07T01:57:21;96208.44;;;12.19;100.00
78170;BME280;67412;49.892;14.490;2023-08-07T01:59:46;96206.66;;;12.21;100.00
78170;BME280;67412;49.892;14.490;2023-08-07T02:02:12;96199.69;;;12.23;100.00
78170;BME280;67412;49.892;14.490;2023-08-07T02:04:37;96199.75;;;12.22;100.00
78170;BME280;67412;49.892;14.490;2023-08-07T02:07:03;96204.78;;;12.25;100.00
78170;BME280;67412;49.892;14.490;2023-08-07T02:09:28;96200.53;;;12.24;100.00
78170;BME280;67412;49.892;14.490;2023-08-07T02:11:53;96199.94;;;12.17;100.00
78170;BME280;67412;49.892;14.490;2023-08-07T02:14:19;96206.88;;;12.15;100.00
78170;BME280;67412;49.892;14.490;2023-08-07T02:16:44;96209.72;;;12.07;100.00
78170;BME280;67412;49.892;14.490;2023-08-07T02:19:09;96202.25;;;12.01;100.00
78170;BME280;67412;49.892;14.490;2023-08-07T02:21:34;96203.09;;;12.02;100.00
78170;BME280;67412;49.892;14.490;2023-08-07T02:24:00;96212.50;;;12.03;100.00
78170;BME280;67412;49.892;14.490;2023-08-07T02:26:25;96208.34;;;11.99;100.00
78170;BME280;67412;49.892;14.490;2023-08-07T02:28:50;96204.16;;;11.96;100.00
78170;BME280;67412;49.892;14.490;2023-08-07T02:31:16;96212.94;;;11.91;100.00
78170;BME280;67412;49.892;14.490;2023-08-07T02:33:41;96211.22;;;11.91;100.00
78170;BME280;67412;49.892;14.490;2023-08-07T02:36:07;96207.00;;;11.89;100.00
78170;BME280;67412;49.892;14.490;2023-08-07T02:38:32;96213.84;;;11.90;100.00
78170;BME280;67412;49.892;14.490;2023-08-07T02:40:58;96226.94;;;11.84;100.00
78170;BME280;67412;49.892;14.490;2023-08-07T02:43:23;96212.34;;;11.84;100.00
78170;BME280;67412;49.892;14.490;2023-08-07T02:45:48;96221.06;;;11.80;100.00
78170;BME280;67412;49.892;14.490;2023-08-07T02:48:14;96223.66;;;11.80;100.00
78170;BME280;67412;49.892;14.490;2023-08-07T02:50:39;96216.09;;;11.76;100.00
78170;BME280;67412;49.892;14.490;2023-08-07T02:53:04;96210.06;;;11.77;100.00
78170;BME280;67412;49.892;14.490;2023-08-07T02:55:30;96218.69;;;11.74;100.00
78170;BME280;67412;49.892;14.490;2023-08-07T02:57:55;96213.56;;;11.74;100.00
78170;BME280;67412;49.892;14.490;2023-08-07T03:00:20;96222.19;;;11.73;100.00
78170;BME280;67412;49.892;14.490;2023-08-07T03:02:46;96217.09;;;11.72;100.00
78170;BME280;67412;49.892;14.490;2023-08-07T03:05:11;96230.69;;;11.75;100.00
78170;BME280;67412;49.892;14.490;2023-08-07T03:07:36;96228.31;;;11.69;100.00
78170;BME280;67412;49.892;14.490;2023-08-07T03:10:02;96215.50;;;11.68;100.00
78170;BME280;67412;49.892;14.490;2023-08-07T03:12:28;96227.56;;;11.66;100.00
78170;BME280;67412;49.892;14.490;2023-08-07T03:14:54;96224.16;;;11.65;100.00
78170;BME280;67412;49.892;14.490;2023-08-07T03:17:19;96225.06;;;11.64;100.00
78170;BME280;67412;49.892;14.490;2023-08-07T03:19:45;96225.06;;;11.64;100.00
78170;BME280;67412;49.892;14.490;2023-08-07T03:22:11;96231.03;;;11.64;100.00
78170;BME280;67412;49.892;14.490;2023-08-07T03:24:37;96226.63;;;11.68;100.00
78170;BME280;67412;49.892;14.490;2023-08-07T03:27:02;96231.03;;;11.64;100.00
78170;BME280;67412;49.892;14.490;2023-08-07T03:29:28;96231.03;;;11.64;100.00
78170;BME280;67412;49.892;14.490;2023-08-07T03:31:53;96232.00;;;11.62;100.00
78170;BME280;67412;49.892;14.490;2023-08-07T03:34:19;96231.16;;;11.61;100.00
78170;BME280;67412;49.892;14.490;2023-08-07T03:36:44;96234.56;;;11.62;100.00
78170;BME280;67412;49.892;14.490;2023-08-07T03:39:10;96237.19;;;11.60;100.00
78170;BME280;67412;49.892;14.490;2023-08-07T03:41:36;96240.53;;;11.62;100.00
78170;BME280;67412;49.892;14.490;2023-08-07T03:44:02;96235.28;;;11.66;100.00
78170;BME280;67412;49.892;14.490;2023-08-07T03:46:27;96237.94;;;11.62;100.00
78170;BME280;67412;49.892;14.490;2023-08-07T03:48:52;96238.06;;;11.59;100.00
78170;BME280;67412;49.892;14.490;2023-08-07T03:51:18;96238.88;;;11.61;100.00
78170;BME280;67412;49.892;14.490;2023-08-07T03:53:43;96241.44;;;11.61;100.00
78170;BME280;67412;49.892;14.490;2023-08-07T03:56:08;96249.94;;;11.63;100.00
78170;BME280;67412;49.892;14.490;2023-08-07T03:58:34;96248.44;;;11.58;100.00
78170;BME280;67412;49.892;14.490;2023-08-07T04:00:59;96248.44;;;11.58;100.00
78170;BME280;67412;49.892;14.490;2023-08-07T04:03:24;96253.63;;;11.56;100.00
78170;BME280;67412;49.892;14.490;2023-08-07T04:05:54;96257.75;;;11.60;100.00
78170;BME280;67412;49.892;14.490;2023-08-07T04:08:20;96253.38;;;11.62;100.00
78170;BME280;67412;49.892;14.490;2023-08-07T04:11:03;96254.31;;;11.61;100.00
78170;BME280;67412;49.892;14.490;2023-08-07T04:13:30;96251.88;;;11.57;100.00
78170;BME280;67412;49.892;14.490;2023-08-07T04:15:56;96259.44;;;11.61;100.00
78170;BME280;67412;49.892;14.490;2023-08-07T04:18:21;96256.97;;;11.58;100.00
78170;BME280;67412;49.892;14.490;2023-08-07T04:20:52;96261.19;;;11.61;100.00
78170;BME280;67412;49.892;14.490;2023-08-07T04:23:17;96259.50;;;11.60;100.00
78170;BME280;67412;49.892;14.490;2023-08-07T04:25:43;96268.06;;;11.60;100.00
78170;BME280;67412;49.892;14.490;2023-08-07T04:28:08;96268.81;;;11.62;100.00
78170;BME280;67412;49.892;14.490;2023-08-07T04:30:34;96267.06;;;11.64;100.00
78170;BME280;67412;49.892;14.490;2023-08-07T04:32:59;96269.88;;;11.57;100.00
78170;BME280;67412;49.892;14.490;2023-08-07T04:35:24;96272.38;;;11.58;100.00
78170;BME280;67412;49.892;14.490;2023-08-07T04:37:50;96270.63;;;11.60;100.00
78170;BME280;67412;49.892;14.490;2023-08-07T04:40:15;96276.66;;;11.59;100.00
78170;BME280;67412;49.892;14.490;2023-08-07T04:42:40;96269.56;;;11.66;100.00
78170;BME280;67412;49.892;14.490;2023-08-07T04:45:06;96277.38;;;11.63;100.00
78170;BME280;67412;49.892;14.490;2023-08-07T04:47:31;96275.72;;;11.62;100.00
78170;BME280;67412;49.892;14.490;2023-08-07T04:49:57;96277.34;;;11.64;100.00
78170;BME280;67412;49.892;14.490;2023-08-07T04:52:22;96269.63;;;11.64;100.00
78170;BME280;67412;49.892;14.490;2023-08-07T04:54:47;96275.53;;;11.67;100.00
78170;BME280;67412;49.892;14.490;2023-08-07T04:57:13;96278.97;;;11.67;100.00
78170;BME280;67412;49.892;14.490;2023-08-07T04:59:38;96273.69;;;11.70;100.00
78170;BME280;67412;49.892;14.490;2023-08-07T05:02:03;96276.22;;;11.73;100.00
78170;BME280;67412;49.892;14.490;2023-08-07T05:04:29;96269.38;;;11.72;100.00
78170;BME280;67412;49.892;14.490;2023-08-07T05:06:54;96277.88;;;11.74;100.00
78170;BME280;67412;49.892;14.490;2023-08-07T05:09:19;96274.38;;;11.77;100.00
78170;BME280;67412;49.892;14.490;2023-08-07T05:11:45;96277.75;;;11.77;100.00
78170;BME280;67412;49.892;14.490;2023-08-07T05:14:11;96276.88;;;11.78;100.00
78170;BME280;67412;49.892;14.490;2023-08-07T05:16:36;96289.84;;;11.75;100.00
78170;BME280;67412;49.892;14.490;2023-08-07T05:19:01;96295.97;;;11.73;100.00
78170;BME280;67412;49.892;14.490;2023-08-07T05:21:27;96298.53;;;11.73;100.00
78170;BME280;67412;49.892;14.490;2023-08-07T05:23:52;96301.72;;;11.79;100.00
78170;BME280;67412;49.892;14.490;2023-08-07T05:26:20;96293.16;;;11.79;100.00
78170;BME280;67412;49.892;14.490;2023-08-07T05:28:46;96294.69;;;11.84;100.00
78170;BME280;67412;49.892;14.490;2023-08-07T05:31:11;96310.06;;;11.86;100.00
78170;BME280;67412;49.892;14.490;2023-08-07T05:33:37;96303.28;;;11.83;100.00
78170;BME280;67412;49.892;14.490;2023-08-07T05:36:02;96311.13;;;11.80;100.00
78170;BME280;67412;49.892;14.490;2023-08-07T05:38:27;96308.31;;;11.86;100.00
78170;BME280;67412;49.892;14.490;2023-08-07T05:40:53;96311.06;;;11.82;100.00
78170;BME280;67412;49.892;14.490;2023-08-07T05:43:18;96311.06;;;11.82;100.00
78170;BME280;67412;49.892;14.490;2023-08-07T05:45:45;96316.09;;;11.85;100.00
78170;BME280;67412;49.892;14.490;2023-08-07T05:48:11;96316.09;;;11.85;100.00
78170;BME280;67412;49.892;14.490;2023-08-07T05:50:37;96321.16;;;11.88;100.00
78170;BME280;67412;49.892;14.490;2023-08-07T05:53:02;96326.06;;;11.94;100.00
78170;BME280;67412;49.892;14.490;2023-08-07T05:55:28;96323.47;;;11.95;100.00
78170;BME280;67412;49.892;14.490;2023-08-07T05:57:53;96321.66;;;11.97;100.00
78170;BME280;67412;49.892;14.490;2023-08-07T06:00:18;96333.69;;;11.97;100.00
78170;BME280;67412;49.892;14.490;2023-08-07T06:02:44;96336.94;;;12.02;100.00
78170;BME280;67412;49.892;14.490;2023-08-07T06:05:10;96338.78;;;11.98;100.00
78170;BME280;67412;49.892;14.490;2023-08-07T06:07:38;96338.97;;;11.92;100.00
78170;BME280;67412;49.892;14.490;2023-08-07T06:10:04;96341.50;;;11.94;100.00
78170;BME280;67412;49.892;14.490;2023-08-07T06:12:30;96350.97;;;11.93;100.00
78170;BME280;67412;49.892;14.490;2023-08-07T06:14:55;96356.97;;;11.94;100.00
78170;BME280;67412;49.892;14.490;2023-08-07T06:17:20;96350.09;;;11.94;100.00
78170;BME280;67412;49.892;14.490;2023-08-07T06:19:46;96367.25;;;11.94;100.00
78170;BME280;67412;49.892;14.490;2023-08-07T06:22:11;96367.03;;;12.00;100.00
78170;BME280;67412;49.892;14.490;2023-08-07T06:24:36;96360.34;;;11.96;100.00
78170;BME280;67412;49.892;14.490;2023-08-07T06:27:02;96368.69;;;12.02;100.00
78170;BME280;67412;49.892;14.490;2023-08-07T06:29:28;96369.44;;;12.04;100.00
78170;BME280;67412;49.892;14.490;2023-08-07T06:31:53;96369.41;;;12.06;100.00
78170;BME280;67412;49.892;14.490;2023-08-07T06:34:18;96372.81;;;12.06;100.00
78170;BME280;67412;49.892;14.490;2023-08-07T06:36:44;96372.97;;;12.02;100.00
78170;BME280;67412;49.892;14.490;2023-08-07T06:39:09;96374.56;;;12.06;100.00
78170;BME280;67412;49.892;14.490;2023-08-07T06:41:35;96376.41;;;12.02;100.00
78170;BME280;67412;49.892;14.490;2023-08-07T06:44:01;96371.13;;;12.05;100.00
78170;BME280;67412;49.892;14.490;2023-08-07T06:46:26;96372.72;;;12.09;100.00
78170;BME280;67412;49.892;14.490;2023-08-07T06:48:53;96383.84;;;12.10;100.00
78170;BME280;67412;49.892;14.490;2023-08-07T06:51:18;96378.69;;;12.10;100.00
78170;BME280;67412;49.892;14.490;2023-08-07T06:53:43;96382.94;;;12.11;100.00
78170;BME280;67412;49.892;14.490;2023-08-07T06:56:09;96384.25;;;12.23;100.00
78170;BME280;67412;49.892;14.490;2023-08-07T06:58:34;96391.91;;;12.24;100.00
78170;BME280;67412;49.892;14.490;2023-08-07T07:00:59;96398.06;;;12.20;100.00
78170;BME280;67412;49.892;14.490;2023-08-07T07:03:25;96397.31;;;12.18;100.00
78170;BME280;67412;49.892;14.490;2023-08-07T07:05:50;96407.50;;;12.21;100.00
78170;BME280;67412;49.892;14.490;2023-08-07T07:08:15;96401.38;;;12.24;100.00
78170;BME280;67412;49.892;14.490;2023-08-07T07:10:41;96407.25;;;12.27;100.00
78170;BME280;67412;49.892;14.490;2023-08-07T07:13:06;96414.97;;;12.27;100.00
78170;BME280;67412;49.892;14.490;2023-08-07T07:15:33;96412.41;;;12.27;100.00
78170;BME280;67412;49.892;14.490;2023-08-07T07:17:58;96423.66;;;12.25;100.00
78170;BME280;67412;49.892;14.490;2023-08-07T07:20:25;96425.41;;;12.24;100.00
78170;BME280;67412;49.892;14.490;2023-08-07T07:22:52;96431.31;;;12.26;100.00
78170;BME280;67412;49.892;14.490;2023-08-07T07:25:17;96433.84;;;12.28;100.00
78170;BME280;67412;49.892;14.490;2023-08-07T07:27:43;96435.47;;;12.30;100.00
78170;BME280;67412;49.892;14.490;2023-08-07T07:30:08;96443.13;;;12.33;100.00
78170;BME280;67412;49.892;14.490;2023-08-07T07:32:34;96437.78;;;12.38;100.00
78170;BME280;67412;49.892;14.490;2023-08-07T07:34:59;96443.78;;;12.38;100.00
78170;BME280;67412;49.892;14.490;2023-08-07T07:37:25;96443.56;;;12.44;100.00
78170;BME280;67412;49.892;14.490;2023-08-07T07:39:50;96457.72;;;12.56;100.00
78170;BME280;67412;49.892;14.490;2023-08-07T07:42:15;96453.22;;;12.63;100.00
78170;BME280;67412;49.892;14.490;2023-08-07T07:44:40;96460.47;;;12.75;100.00
78170;BME280;67412;49.892;14.490;2023-08-07T07:47:07;96462.75;;;12.84;100.00
78170;BME280;67412;49.892;14.490;2023-08-07T07:49:33;96465.00;;;12.93;100.00
78170;BME280;67412;49.892;14.490;2023-08-07T07:51:58;96466.31;;;13.03;100.00
78170;BME280;67412;49.892;14.490;2023-08-07T07:54:23;96477.06;;;13.16;100.00
78170;BME280;67412;49.892;14.490;2023-08-07T07:56:49;96476.41;;;13.32;100.00
78170;BME280;67412;49.892;14.490;2023-08-07T07:59:14;96487.72;;;13.50;100.00
78170;BME280;67412;49.892;14.490;2023-08-07T08:01:40;96482.06;;;13.42;100.00
78170;BME280;67412;49.892;14.490;2023-08-07T08:04:05;96484.63;;;13.42;100.00
78170;BME280;67412;49.892;14.490;2023-08-07T08:06:31;96499.88;;;13.48;100.00
78170;BME280;67412;49.892;14.490;2023-08-07T08:08:56;96502.03;;;13.37;100.00
78170;BME280;67412;49.892;14.490;2023-08-07T08:11:22;96502.75;;;13.40;100.00
78170;BME280;67412;49.892;14.490;2023-08-07T08:13:47;96503.63;;;13.39;100.00
78170;BME280;67412;49.892;14.490;2023-08-07T08:16:13;96499.31;;;13.40;100.00
78170;BME280;67412;49.892;14.490;2023-08-07T08:18:38;96499.16;;;13.44;100.00
78170;BME280;67412;49.892;14.490;2023-08-07T08:21:03;96496.09;;;13.57;100.00
78170;BME280;67412;49.892;14.490;2023-08-07T08:23:29;96506.72;;;13.49;100.00
78170;BME280;67412;49.892;14.490;2023-08-07T08:25:54;96500.75;;;13.25;100.00
78170;BME280;67412;49.892;14.490;2023-08-07T08:28:19;96520.13;;;13.35;100.00
78170;BME280;67412;49.892;14.490;2023-08-07T08:30:45;96520.63;;;13.45;100.00
78170;BME280;67412;49.892;14.490;2023-08-07T08:33:10;96520.97;;;13.36;100.00
78170;BME280;67412;49.892;14.490;2023-08-07T08:35:38;96521.50;;;13.22;100.00
78170;BME280;67412;49.892;14.490;2023-08-07T08:38:04;96533.59;;;13.20;100.00
78170;BME280;67412;49.892;14.490;2023-08-07T08:40:30;96532.56;;;13.01;100.00
78170;BME280;67412;49.892;14.490;2023-08-07T08:42:56;96533.34;;;13.03;100.00
78170;BME280;67412;49.892;14.490;2023-08-07T08:45:26;96536.25;;;12.94;100.00
78170;BME280;67412;49.892;14.490;2023-08-07T08:47:55;96531.22;;;12.91;100.00
78170;BME280;67412;49.892;14.490;2023-08-07T08:50:22;96538.94;;;12.91;100.00
78170;BME280;67412;49.892;14.490;2023-08-07T08:52:50;96539.75;;;12.93;100.00
78170;BME280;67412;49.892;14.490;2023-08-07T08:55:16;96539.78;;;12.91;100.00
78170;BME280;67412;49.892;14.490;2023-08-07T08:57:42;96551.69;;;12.95;100.00
78170;BME280;67412;49.892;14.490;2023-08-07T09:00:08;96552.44;;;12.97;100.00
78170;BME280;67412;49.892;14.490;2023-08-07T09:02:46;96557.16;;;13.11;100.00
78170;BME280;67412;49.892;14.490;2023-08-07T09:05:12;96562.97;;;13.16;100.00
78170;BME280;67412;49.892;14.490;2023-08-07T09:07:38;96564.50;;;13.22;100.00
78170;BME280;67412;49.892;14.490;2023-08-07T09:10:04;96568.03;;;13.19;100.00
78170;BME280;67412;49.892;14.490;2023-08-07T09:12:32;96574.81;;;13.22;100.00
78170;BME280;67412;49.892;14.490;2023-08-07T09:14:58;96573.94;;;13.23;100.00
78170;BME280;67412;49.892;14.490;2023-08-07T09:17:31;96582.16;;;13.32;100.00
78170;BME280;67412;49.892;14.490;2023-08-07T09:19:59;96578.56;;;13.36;100.00
78170;BME280;67412;49.892;14.490;2023-08-07T09:22:25;96578.13;;;13.48;100.00
78170;BME280;67412;49.892;14.490;2023-08-07T09:24:50;96584.28;;;13.44;100.00
78170;BME280;67412;49.892;14.490;2023-08-07T09:27:16;96593.59;;;13.48;100.00
78170;BME280;67412;49.892;14.490;2023-08-07T09:29:43;96579.84;;;13.48;100.00
78170;BME280;67412;49.892;14.490;2023-08-07T09:32:11;96583.22;;;13.50;100.00
78170;BME280;67412;49.892;14.490;2023-08-07T09:34:41;96606.63;;;13.45;100.00
78170;BME280;67412;49.892;14.490;2023-08-07T09:37:08;96598.53;;;13.54;100.00
78170;BME280;67412;49.892;14.490;2023-08-07T09:39:34;96606.66;;;13.67;100.00
78170;BME280;67412;49.892;14.490;2023-08-07T09:42:01;96599.94;;;13.63;100.00
78170;BME280;67412;49.892;14.490;2023-08-07T09:44:35;96603.00;;;13.73;100.00
78170;BME280;67412;49.892;14.490;2023-08-07T09:47:00;96610.66;;;13.97;100.00
78170;BME280;67412;49.892;14.490;2023-08-07T09:49:35;96604.81;;;14.14;100.00
78170;BME280;67412;49.892;14.490;2023-08-07T09:52:05;96605.53;;;14.18;100.00
78170;BME280;67412;49.892;14.490;2023-08-07T09:54:32;96615.66;;;14.02;100.00
78170;BME280;67412;49.892;14.490;2023-08-07T09:57:01;96618.09;;;14.05;100.00
78170;BME280;67412;49.892;14.490;2023-08-07T09:59:27;96621.75;;;13.99;100.00
78170;BME280;67412;49.892;14.490;2023-08-07T10:01:54;96619.34;;;13.95;100.00
78170;BME280;67412;49.892;14.490;2023-08-07T10:04:21;96626.59;;;13.85;100.00
78170;BME280;67412;49.892;14.490;2023-08-07T10:06:46;96628.47;;;13.82;100.00
78170;BME280;67412;49.892;14.490;2023-08-07T10:09:12;96639.25;;;13.70;100.00
78170;BME280;67412;49.892;14.490;2023-08-07T10:11:38;96629.44;;;13.56;100.00
78170;BME280;67412;49.892;14.490;2023-08-07T10:14:05;96633.81;;;13.54;100.00
78170;BME280;67412;49.892;14.490;2023-08-07T10:16:30;96636.22;;;13.35;100.00
78170;BME280;67412;49.892;14.490;2023-08-07T10:18:56;96644.03;;;13.34;100.00
78170;BME280;67412;49.892;14.490;2023-08-07T10:21:23;96642.38;;;13.31;100.00
78170;BME280;67412;49.892;14.490;2023-08-07T10:23:52;96638.28;;;13.26;100.00
78170;BME280;67412;49.892;14.490;2023-08-07T10:26:19;96627.25;;;13.22;100.00
78170;BME280;67412;49.892;14.490;2023-08-07T10:28:46;96635.66;;;13.27;100.00
78170;BME280;67412;49.892;14.490;2023-08-07T10:31:12;96631.44;;;13.25;100.00
78170;BME280;67412;49.892;14.490;2023-08-07T10:33:40;96636.34;;;13.32;100.00
78170;BME280;67412;49.892;14.490;2023-08-07T10:36:09;96633.56;;;13.38;100.00
78170;BME280;67412;49.892;14.490;2023-08-07T10:38:35;96639.59;;;13.37;100.00
78170;BME280;67412;49.892;14.490;2023-08-07T10:41:06;96639.25;;;13.23;100.00
78170;BME280;67412;49.892;14.490;2023-08-07T10:43:36;96645.66;;;13.36;100.00
78170;BME280;67412;49.892;14.490;2023-08-07T10:46:03;96655.00;;;13.39;100.00
78170;BME280;67412;49.892;14.490;2023-08-07T10:48:29;96650.88;;;13.58;100.00
78170;BME280;67412;49.892;14.490;2023-08-07T10:56:04;96651.44;;;13.66;100.00
78170;BME280;67412;49.892;14.490;2023-08-07T10:58:34;96652.44;;;13.62;100.00
78170;BME280;67412;49.892;14.490;2023-08-07T11:04:05;96643.84;;;13.85;99.04
78170;BME280;67412;49.892;14.490;2023-08-07T11:06:32;96650.28;;;13.96;99.98
78170;BME280;67412;49.892;14.490;2023-08-07T11:09:05;96651.16;;;13.95;99.18
78170;BME280;67412;49.892;14.490;2023-08-07T11:11:43;96652.81;;;13.98;97.21
78170;BME280;67412;49.892;14.490;2023-08-07T11:14:12;96655.63;;;13.92;95.30
78170;BME280;67412;49.892;14.490;2023-08-07T11:16:38;96656.50;;;13.91;95.07
78170;BME280;67412;49.892;14.490;2023-08-07T11:19:04;96656.13;;;14.01;94.73
78170;BME280;67412;49.892;14.490;2023-08-07T11:21:33;96651.56;;;14.08;94.80
78170;BME280;67412;49.892;14.490;2023-08-07T11:24:01;96650.16;;;14.21;89.59
78170;BME280;67412;49.892;14.490;2023-08-07T11:26:26;96652.66;;;14.24;91.39
78170;BME280;67412;49.892;14.490;2023-08-07T11:28:53;96651.13;;;14.19;91.89
78170;BME280;67412;49.892;14.490;2023-08-07T11:31:19;96663.06;;;14.21;89.44
78170;BME280;67412;49.892;14.490;2023-08-07T11:33:45;96655.16;;;14.26;89.60
78170;BME280;67412;49.892;14.490;2023-08-07T11:36:13;96641.34;;;14.48;89.37
78170;BME280;67412;49.892;14.490;2023-08-07T11:38:41;96650.13;;;14.44;90.63
78170;BME280;67412;49.892;14.490;2023-08-07T11:41:14;96647.31;;;14.50;89.40
78170;BME280;67412;49.892;14.490;2023-08-07T11:43:40;96654.28;;;14.48;90.29
78170;BME280;67412;49.892;14.490;2023-08-07T11:46:10;96653.13;;;14.56;88.86
78170;BME280;67412;49.892;14.490;2023-08-07T11:48:37;96658.38;;;14.54;87.21
78170;BME280;67412;49.892;14.490;2023-08-07T11:51:04;96657.00;;;14.45;87.16
78170;BME280;67412;49.892;14.490;2023-08-07T11:53:34;96661.13;;;14.49;87.22
78170;BME280;67412;49.892;14.490;2023-08-07T11:56:04;96667.78;;;14.55;87.18
78170;BME280;67412;49.892;14.490;2023-08-07T11:58:38;96667.47;;;14.63;88.55
78170;BME280;67412;49.892;14.490;2023-08-07T12:03:37;96672.69;;;14.83;84.22
78170;BME280;67412;49.892;14.490;2023-08-07T12:06:06;96672.41;;;14.89;84.65
78170;BME280;67412;49.892;14.490;2023-08-07T12:08:40;96672.31;;;14.92;84.92
78170;BME280;67412;49.892;14.490;2023-08-07T12:11:07;96683.78;;;14.85;84.25
78170;BME280;67412;49.892;14.490;2023-08-07T12:13:37;96694.28;;;14.82;83.25
78170;BME280;67412;49.892;14.490;2023-08-07T12:16:03;96693.03;;;14.70;83.05
78170;BME280;67412;49.892;14.490;2023-08-07T12:18:31;96697.66;;;14.62;82.50
78170;BME280;67412;49.892;14.490;2023-08-07T12:20:59;96718.03;;;14.70;83.29
78170;BME280;67412;49.892;14.490;2023-08-07T12:23:25;96698.00;;;14.75;83.14
78170;BME280;67412;49.892;14.490;2023-08-07T12:25:50;96700.81;;;14.90;83.99
78170;BME280;67412;49.892;14.490;2023-08-07T12:28:17;96702.03;;;14.82;82.63
78170;BME280;67412;49.892;14.490;2023-08-07T12:30:45;96713.31;;;14.81;82.47
78170;BME280;67412;49.892;14.490;2023-08-07T12:33:11;96711.22;;;14.89;82.14
78170;BME280;67412;49.892;14.490;2023-08-07T12:35:37;96709.16;;;14.97;81.91
78170;BME280;67412;49.892;14.490;2023-08-07T12:38:02;96703.09;;;14.98;82.51
78170;BME280;67412;49.892;14.490;2023-08-07T12:40:28;96706.16;;;14.86;81.60
78170;BME280;67412;49.892;14.490;2023-08-07T12:42:54;96718.66;;;14.76;81.05
78170;BME280;67412;49.892;14.490;2023-08-07T12:45:19;96731.28;;;14.84;80.38
78170;BME280;67412;49.892;14.490;2023-08-07T12:47:45;96718.53;;;14.79;80.01
78170;BME280;67412;49.892;14.490;2023-08-07T12:50:11;96728.28;;;14.73;81.21
78170;BME280;67412;49.892;14.490;2023-08-07T12:52:37;96734.38;;;14.70;82.14